Time;durP1;ratioP1;P1;durP2;ratioP2;P2;SDS_P1;SDS_P2;PMS_P1;PMS_P2;Temp;Humidity;BMP_temperature;BMP_pressure;BME280_temperature;BME280_humidity;BME280_pressure;Samples;Min_cycle;Max_cycle;Signal;HPM_P1;HPM_P2
2021/12/11 00:01:38;;;;;;;43.30;14.70;;;;;;;;;;5034727;28;20083;-57
2021/12/11 00:04:06;;;;;;;42.78;13.63;;;;;;;;;;5034264;28;20032;-56
2021/12/11 00:06:35;;;;;;;35.85;13.95;;;;;;;;;;5032268;28;20021;-53
2021/12/11 00:09:10;;;;;;;32.42;12.27;;;;;;;;;;5031250;28;20025;-55
2021/12/11 00:11:37;;;;;;;31.50;12.38;;;;;;;;;;5030317;28;20148;-54
2021/12/11 00:14:04;;;;;;;33.78;12.70;;;;;;;;;;5031380;28;20505;-54
2021/12/11 00:16:32;;;;;;;37.90;13.50;;;;;;;;;;5030803;28;20030;-54
2021/12/11 00:19:02;;;;;;;36.10;12.80;;;;;;;;;;5026934;28;20021;-54
2021/12/11 00:21:29;;;;;;;38.20;13.75;;;;;;;;;;5032585;28;20022;-54
2021/12/11 00:24:01;;;;;;;38.83;13.95;;;;;;;;;;5033761;28;20105;-54
2021/12/11 00:26:47;;;;;;;38.40;14.40;;;;;;;;;;5026465;28;20040;-55
2021/12/11 00:29:14;;;;;;;38.97;13.52;;;;;;;;;;5031276;28;20096;-57
2021/12/11 00:31:47;;;;;;;33.65;13.20;;;;;;;;;;5036222;28;20343;-53
2021/12/11 00:34:13;;;;;;;;;;;;;;;;;;5036600;28;20055;-54
2021/12/11 00:36:39;;;;;;;31.73;12.05;;;;;;;;;;5034645;28;19917;-53
2021/12/11 00:39:08;;;;;;;34.22;13.68;;;;;;;;;;5033159;28;20028;-56
2021/12/11 00:41:35;;;;;;;32.88;12.00;;;;;;;;;;5039046;28;20029;-58
2021/12/11 00:44:01;;;;;;;34.28;13.02;;;;;;;;;;5033641;28;20420;-54
2021/12/11 00:46:28;;;;;;;29.85;12.20;;;;;;;;;;5026749;28;20033;-58
2021/12/11 00:48:55;;;;;;;34.33;13.02;;;;;;;;;;5033215;28;20044;-57
2021/12/11 00:51:22;;;;;;;36.63;13.05;;;;;;;;;;5032285;28;20032;-59
2021/12/11 00:53:51;;;;;;;30.60;11.80;;;;;;;;;;5034975;28;20026;-56
2021/12/11 00:56:19;;;;;;;37.00;11.90;;;;;;;;;;5041584;28;20044;-55
2021/12/11 00:58:48;;;;;;;27.65;11.13;;;;;;;;;;5032809;28;20030;-58
2021/12/11 01:01:16;;;;;;;32.90;10.77;;;;;;;;;;5038179;28;20111;-58
2021/12/11 01:03:42;;;;;;;33.42;12.55;;;;;;;;;;5025584;28;20529;-56
2021/12/11 01:06:14;;;;;;;30.60;12.25;;;;;;;;;;5038087;28;20074;-58
2021/12/11 01:08:42;;;;;;;34.63;11.98;;;;;;;;;;5035569;28;20037;-57
2021/12/11 01:11:08;;;;;;;37.83;13.05;;;;;;;;;;5045230;28;20147;-56
2021/12/11 01:13:38;;;;;;;35.60;13.13;;;;;;;;;;5025310;28;20437;-57
2021/12/11 01:16:11;;;;;;;35.40;13.55;;;;;;;;;;5033769;28;20025;-58
2021/12/11 01:18:39;;;;;;;34.65;11.95;;;;;;;;;;5036492;28;20030;-58
2021/12/11 01:21:13;;;;;;;37.85;13.90;;;;;;;;;;5029150;28;20025;-55
2021/12/11 01:26:10;;;;;;;38.88;13.30;;;;;;;;;;5034198;28;20029;-58
2021/12/11 01:28:36;;;;;;;41.92;13.85;;;;;;;;;;5036832;28;20507;-59
2021/12/11 01:31:03;;;;;;;36.05;12.23;;;;;;;;;;5024869;28;20489;-59
2021/12/11 01:33:30;;;;;;;34.95;13.57;;;;;;;;;;5037889;28;20708;-55
2021/12/11 01:35:56;;;;;;;37.22;13.23;;;;;;;;;;5035327;28;20029;-57
2021/12/11 01:38:24;;;;;;;46.10;14.15;;;;;;;;;;5034549;28;20029;-55
2021/12/11 01:40:52;;;;;;;34.55;12.95;;;;;;;;;;5035632;28;20175;-53
2021/12/11 01:43:21;;;;;;;36.30;13.80;;;;;;;;;;5040128;28;20021;-54
2021/12/11 01:45:48;;;;;;;33.88;11.88;;;;;;;;;;5038206;28;20112;-55
2021/12/11 01:48:22;;;;;;;34.80;11.60;;;;;;;;;;5038925;28;20048;-56
2021/12/11 01:50:53;;;;;;;33.67;12.13;;;;;;;;;;5037168;28;20029;-56
2021/12/11 01:53:22;;;;;;;37.78;13.15;;;;;;;;;;5037262;28;20030;-58
2021/12/11 01:55:54;;;;;;;34.53;12.88;;;;;;;;;;5035647;28;20159;-52
2021/12/11 01:58:29;;;;;;;37.15;13.60;;;;;;;;;;5030333;28;20033;-54
2021/12/11 02:00:58;;;;;;;39.58;13.65;;;;;;;;;;5039271;28;20494;-56
2021/12/11 02:03:26;;;;;;;36.28;12.15;;;;;;;;;;5027880;28;20451;-54
2021/12/11 02:05:52;;;;;;;34.95;13.18;;;;;;;;;;5030711;28;20561;-57
2021/12/11 02:08:20;;;;;;;40.08;13.63;;;;;;;;;;5031554;28;20120;-58
2021/12/11 02:10:57;;;;;;;36.08;13.13;;;;;;;;;;5037173;28;20083;-58
2021/12/11 02:13:37;;;;;;;31.33;11.30;;;;;;;;;;5028997;28;20033;-56
2021/12/11 02:16:03;;;;;;;32.65;12.30;;;;;;;;;;5033689;28;20371;-57
2021/12/11 02:18:35;;;;;;;42.33;13.02;;;;;;;;;;5033653;28;20025;-59
2021/12/11 02:21:05;;;;;;;33.55;12.40;;;;;;;;;;5036058;28;20021;-57
2021/12/11 02:23:31;;;;;;;34.60;12.57;;;;;;;;;;5033139;28;20030;-56
2021/12/11 02:26:00;;;;;;;35.85;12.52;;;;;;;;;;5035909;28;20025;-56
2021/12/11 02:28:32;;;;;;;35.78;12.43;;;;;;;;;;5042746;28;20118;-59
2021/12/11 02:31:16;;;;;;;31.33;11.32;;;;;;;;;;5030618;28;20034;-54
2021/12/11 02:33:46;;;;;;;36.25;12.20;;;;;;;;;;5026191;28;20038;-58
2021/12/11 02:36:15;;;;;;;28.23;10.63;;;;;;;;;;5036261;28;20132;-58
2021/12/11 02:38:59;;;;;;;37.20;12.73;;;;;;;;;;5035775;28;20048;-55
2021/12/11 02:41:29;;;;;;;36.95;12.48;;;;;;;;;;5038941;28;20481;-53
2021/12/11 02:43:58;;;;;;;35.63;12.95;;;;;;;;;;5035253;28;20095;-56
2021/12/11 02:46:34;;;;;;;33.20;12.43;;;;;;;;;;5031798;28;20093;-55
2021/12/11 02:49:29;;;;;;;28.98;12.25;;;;;;;;;;5035990;28;20034;-57
2021/12/11 02:52:03;;;;;;;29.10;11.43;;;;;;;;;;5025246;28;20124;-58
2021/12/11 02:54:39;;;;;;;33.65;12.95;;;;;;;;;;5040125;28;20393;-58
2021/12/11 02:57:07;;;;;;;34.00;11.98;;;;;;;;;;5040147;28;20029;-56
2021/12/11 02:59:40;;;;;;;36.67;12.23;;;;;;;;;;5037362;28;20116;-57
2021/12/11 03:02:11;;;;;;;36.53;12.70;;;;;;;;;;5035141;28;20026;-53
2021/12/11 03:04:47;;;;;;;31.10;10.18;;;;;;;;;;5033968;28;20115;-54
2021/12/11 03:07:14;;;;;;;36.97;11.68;;;;;;;;;;5042184;28;20548;-57
2021/12/11 03:09:42;;;;;;;33.88;10.38;;;;;;;;;;5038090;28;20086;-56
2021/12/11 03:12:10;;;;;;;31.85;11.93;;;;;;;;;;5038537;28;20454;-57
2021/12/11 03:14:36;;;;;;;36.13;12.65;;;;;;;;;;5038989;28;20450;-56
2021/12/11 03:17:03;;;;;;;33.63;12.07;;;;;;;;;;5050375;28;20021;-55
2021/12/11 03:19:31;;;;;;;38.63;11.57;;;;;;;;;;5029185;28;20055;-56
2021/12/11 03:21:58;;;;;;;35.17;12.65;;;;;;;;;;5030944;28;20065;-55
2021/12/11 03:24:26;;;;;;;39.80;13.02;;;;;;;;;;5033744;28;20040;-53
2021/12/11 03:26:52;;;;;;;33.25;12.15;;;;;;;;;;5040320;28;20116;-58
2021/12/11 03:29:19;;;;;;;39.58;13.45;;;;;;;;;;5033260;28;20385;-56
2021/12/11 03:31:45;;;;;;;36.65;13.70;;;;;;;;;;5033698;28;20026;-59
2021/12/11 03:34:15;;;;;;;39.78;12.82;;;;;;;;;;5034474;28;20132;-58
2021/12/11 03:36:42;;;;;;;40.97;14.10;;;;;;;;;;5031632;28;20030;-57
2021/12/11 03:39:14;;;;;;;39.50;13.10;;;;;;;;;;5030505;28;20403;-59
2021/12/11 03:41:41;;;;;;;38.65;12.35;;;;;;;;;;5034493;28;20109;-58
2021/12/11 03:44:07;;;;;;;35.85;12.80;;;;;;;;;;5036623;28;20033;-58
2021/12/11 03:46:33;;;;;;;35.65;12.57;;;;;;;;;;5035319;28;20528;-58
2021/12/11 03:49:01;;;;;;;37.38;12.63;;;;;;;;;;5026850;28;20104;-58
2021/12/11 03:51:30;;;;;;;39.72;12.48;;;;;;;;;;5037186;28;20030;-58
2021/12/11 03:53:57;;;;;;;46.10;14.13;;;;;;;;;;5035977;28;20056;-58
2021/12/11 03:56:23;;;;;;;42.53;13.57;;;;;;;;;;5030127;28;20120;-58
2021/12/11 03:58:50;;;;;;;34.03;12.60;;;;;;;;;;5038646;28;20377;-57
2021/12/11 04:01:22;;;;;;;36.63;11.55;;;;;;;;;;5038240;28;20048;-57
2021/12/11 04:03:49;;;;;;;29.55;11.38;;;;;;;;;;5030556;28;20025;-58
2021/12/11 04:06:15;;;;;;;31.13;10.43;;;;;;;;;;5031359;28;20434;-59
2021/12/11 04:08:42;;;;;;;34.42;11.30;;;;;;;;;;5037502;28;20178;-58
2021/12/11 04:11:12;;;;;;;30.70;11.25;;;;;;;;;;5029623;28;20093;-59
2021/12/11 04:13:38;;;;;;;31.95;12.02;;;;;;;;;;5038585;28;20039;-58
2021/12/11 04:16:06;;;;;;;33.65;11.82;;;;;;;;;;5029814;28;20053;-58
2021/12/11 04:18:33;;;;;;;26.73;9.27;;;;;;;;;;5035026;28;20029;-59
2021/12/11 04:20:59;;;;;;;25.10;9.75;;;;;;;;;;5033869;28;20113;-58
2021/12/11 04:23:25;;;;;;;30.33;10.43;;;;;;;;;;5033527;28;20527;-58
2021/12/11 04:25:52;;;;;;;29.75;10.32;;;;;;;;;;5028998;28;20065;-58
2021/12/11 04:28:20;;;;;;;30.15;10.45;;;;;;;;;;5034460;28;20037;-57
2021/12/11 04:30:48;;;;;;;29.42;10.65;;;;;;;;;;5029332;28;20022;-53
2021/12/11 04:33:14;;;;;;;23.27;9.73;;;;;;;;;;5028828;28;20056;-57
2021/12/11 04:35:42;;;;;;;30.63;10.38;;;;;;;;;;5033517;28;20062;-56
2021/12/11 04:38:09;;;;;;;34.58;11.27;;;;;;;;;;5033384;28;20033;-55
2021/12/11 04:40:37;;;;;;;26.67;10.43;;;;;;;;;;5030552;28;20021;-55
2021/12/11 04:43:09;;;;;;;26.88;10.68;;;;;;;;;;5025975;28;20060;-57
2021/12/11 04:45:45;;;;;;;26.02;9.60;;;;;;;;;;5031543;28;20583;-56
2021/12/11 04:48:42;;;;;;;30.40;11.13;;;;;;;;;;5029811;28;20037;-59
2021/12/11 04:51:17;;;;;;;27.38;10.85;;;;;;;;;;5033308;28;20057;-59
2021/12/11 04:59:22;;;;;;;34.13;9.90;;;;;;;;;;5025902;28;20036;-58
2021/12/11 05:02:06;;;;;;;27.50;9.27;;;;;;;;;;5026965;28;20544;-58
2021/12/11 05:10:06;;;;;;;32.72;10.35;;;;;;;;;;5041004;28;20046;-57
2021/12/11 05:12:35;;;;;;;26.45;9.73;;;;;;;;;;5038244;28;20021;-59
2021/12/11 05:15:03;;;;;;;27.58;9.27;;;;;;;;;;5030507;28;20107;-55
2021/12/11 05:17:29;;;;;;;29.10;10.38;;;;;;;;;;5037126;28;20365;-59
2021/12/11 05:19:55;;;;;;;28.52;9.93;;;;;;;;;;5043481;28;20033;-55
2021/12/11 05:22:22;;;;;;;22.95;8.35;;;;;;;;;;5033640;28;20044;-57
2021/12/11 05:24:50;;;;;;;25.15;8.65;;;;;;;;;;5033102;28;20071;-56
2021/12/11 05:27:16;;;;;;;29.17;9.85;;;;;;;;;;5030928;28;20030;-54
2021/12/11 05:29:42;;;;;;;30.17;10.57;;;;;;;;;;5026905;28;20029;-57
2021/12/11 05:32:09;;;;;;;28.58;10.50;;;;;;;;;;5028941;28;20105;-58
2021/12/11 05:34:35;;;;;;;20.98;8.07;;;;;;;;;;5031172;28;20041;-56
2021/12/11 05:37:01;;;;;;;23.63;8.40;;;;;;;;;;5030972;28;20521;-58
2021/12/11 05:39:27;;;;;;;29.20;8.63;;;;;;;;;;5031842;28;20109;-56
2021/12/11 05:41:53;;;;;;;25.88;9.68;;;;;;;;;;5028576;28;20064;-57
2021/12/11 05:44:20;;;;;;;18.75;7.65;;;;;;;;;;5031323;28;20037;-58
2021/12/11 05:46:47;;;;;;;20.63;8.15;;;;;;;;;;5035837;28;20524;-56
2021/12/11 05:49:13;;;;;;;23.83;9.65;;;;;;;;;;5030519;28;20037;-57
2021/12/11 05:51:40;;;;;;;23.92;9.13;;;;;;;;;;5040303;28;20033;-58
2021/12/11 05:54:09;;;;;;;21.00;7.68;;;;;;;;;;5038111;28;20057;-57
2021/12/11 05:56:37;;;;;;;20.73;8.30;;;;;;;;;;5036707;28;20037;-58
2021/12/11 05:59:05;;;;;;;30.05;9.23;;;;;;;;;;5019347;28;20432;-57
2021/12/11 06:01:30;;;;;;;28.20;9.23;;;;;;;;;;5031427;28;20053;-55
2021/12/11 06:03:58;;;;;;;19.52;8.68;;;;;;;;;;5035401;28;20451;-52
2021/12/11 06:06:24;;;;;;;21.00;8.35;;;;;;;;;;5035679;28;20033;-56
2021/12/11 06:08:50;;;;;;;23.45;8.63;;;;;;;;;;5031465;28;20052;-58
2021/12/11 06:11:16;;;;;;;22.35;7.90;;;;;;;;;;5034768;28;20413;-57
2021/12/11 06:13:43;;;;;;;20.35;7.35;;;;;;;;;;5034465;28;20033;-57
2021/12/11 06:16:09;;;;;;;22.30;8.30;;;;;;;;;;5036287;28;20029;-59
2021/12/11 06:18:36;;;;;;;19.85;7.72;;;;;;;;;;5035841;28;20030;-58
2021/12/11 06:21:02;;;;;;;24.13;9.07;;;;;;;;;;5026226;28;20362;-57
2021/12/11 06:23:28;;;;;;;21.02;9.07;;;;;;;;;;5037856;28;20056;-57
2021/12/11 06:25:55;;;;;;;21.35;7.53;;;;;;;;;;5035657;28;20425;-54
2021/12/11 06:28:22;;;;;;;23.08;8.00;;;;;;;;;;5036314;28;20398;-57
2021/12/11 06:30:48;;;;;;;23.42;8.52;;;;;;;;;;5028095;28;20108;-55
2021/12/11 06:33:14;;;;;;;31.65;8.02;;;;;;;;;;5034720;28;20087;-52
2021/12/11 06:35:40;;;;;;;25.10;9.18;;;;;;;;;;5032006;28;20033;-57
2021/12/11 06:38:07;;;;;;;23.10;8.05;;;;;;;;;;5033319;28;20021;-57
2021/12/11 06:40:33;;;;;;;19.15;7.38;;;;;;;;;;5032001;28;20084;-57
2021/12/11 06:42:59;;;;;;;16.90;7.28;;;;;;;;;;5029090;28;20018;-56
2021/12/11 06:45:27;;;;;;;22.35;8.25;;;;;;;;;;5033090;28;20478;-57
2021/12/11 06:47:53;;;;;;;19.38;7.35;;;;;;;;;;5029262;28;20026;-55
2021/12/11 06:50:20;;;;;;;18.30;7.20;;;;;;;;;;5029450;28;20038;-59
2021/12/11 06:52:46;;;;;;;21.88;7.75;;;;;;;;;;5029426;28;20079;-57
2021/12/11 06:55:15;;;;;;;24.33;7.75;;;;;;;;;;5033770;28;20511;-58
2021/12/11 06:57:41;;;;;;;17.15;6.63;;;;;;;;;;5034236;28;20025;-56
2021/12/11 07:00:07;;;;;;;20.02;8.15;;;;;;;;;;5031607;28;20365;-59
2021/12/11 07:02:33;;;;;;;18.65;7.10;;;;;;;;;;5030450;28;20679;-56
2021/12/11 07:04:59;;;;;;;21.35;6.72;;;;;;;;;;5033002;28;20109;-56
2021/12/11 07:07:31;;;;;;;25.13;8.13;;;;;;;;;;5033063;28;20061;-59
2021/12/11 07:09:59;;;;;;;15.17;6.30;;;;;;;;;;5029742;28;20029;-56
2021/12/11 07:12:25;;;;;;;25.25;7.70;;;;;;;;;;5031204;28;20112;-58
2021/12/11 07:14:52;;;;;;;19.48;8.38;;;;;;;;;;5023968;28;20037;-57
2021/12/11 07:17:18;;;;;;;27.33;7.78;;;;;;;;;;5031513;28;20029;-57
2021/12/11 07:19:44;;;;;;;24.75;8.93;;;;;;;;;;5032082;28;20037;-59
2021/12/11 07:22:10;;;;;;;19.77;8.00;;;;;;;;;;5039776;28;20503;-55
2021/12/11 07:24:45;;;;;;;23.48;8.13;;;;;;;;;;5037533;28;20432;-56
2021/12/11 07:27:11;;;;;;;26.15;8.18;;;;;;;;;;5030342;28;20076;-59
2021/12/11 07:29:38;;;;;;;24.15;8.77;;;;;;;;;;5025869;28;20633;-56
2021/12/11 07:32:05;;;;;;;22.60;7.28;;;;;;;;;;5028737;28;20037;-56
2021/12/11 07:34:31;;;;;;;23.58;8.43;;;;;;;;;;5035255;28;20515;-58
2021/12/11 07:36:58;;;;;;;22.13;7.57;;;;;;;;;;5029076;28;20032;-58
2021/12/11 07:39:24;;;;;;;25.13;8.48;;;;;;;;;;5032893;28;20097;-58
2021/12/11 07:41:52;;;;;;;21.35;7.95;;;;;;;;;;5034872;28;20539;-57
2021/12/11 07:44:18;;;;;;;25.60;7.93;;;;;;;;;;5034799;28;20159;-58
2021/12/11 07:46:44;;;;;;;21.45;7.90;;;;;;;;;;5035922;28;20518;-56
2021/12/11 07:49:10;;;;;;;23.88;7.78;;;;;;;;;;5027094;28;20025;-57
2021/12/11 07:51:36;;;;;;;24.58;7.85;;;;;;;;;;5026656;28;20093;-53
2021/12/11 07:54:03;;;;;;;26.83;8.52;;;;;;;;;;5029345;28;20373;-58
2021/12/11 07:56:30;;;;;;;18.83;7.13;;;;;;;;;;5037892;28;20021;-58
2021/12/11 07:58:59;;;;;;;21.13;7.72;;;;;;;;;;5032306;28;20029;-58
2021/12/11 08:01:25;;;;;;;22.00;7.82;;;;;;;;;;5033809;28;20022;-57
2021/12/11 08:03:51;;;;;;;22.92;7.70;;;;;;;;;;5032970;28;20466;-58
2021/12/11 08:06:17;;;;;;;25.33;7.80;;;;;;;;;;5030374;28;20038;-58
2021/12/11 08:08:45;;;;;;;19.50;7.15;;;;;;;;;;5031337;28;20036;-55
2021/12/11 08:11:16;;;;;;;19.67;6.72;;;;;;;;;;5024309;28;20021;-59
2021/12/11 08:13:44;;;;;;;23.63;8.05;;;;;;;;;;5033207;28;20538;-58
2021/12/11 08:16:10;;;;;;;21.88;8.07;;;;;;;;;;5026707;28;20370;-58
2021/12/11 08:18:36;;;;;;;22.05;8.10;;;;;;;;;;5027208;28;20155;-56
2021/12/11 08:21:02;;;;;;;24.38;8.15;;;;;;;;;;5034136;28;20029;-57
2021/12/11 08:23:28;;;;;;;26.40;7.88;;;;;;;;;;5026716;28;20021;-58
2021/12/11 08:25:55;;;;;;;21.17;8.70;;;;;;;;;;5030131;28;20077;-55
2021/12/11 08:28:23;;;;;;;26.00;8.30;;;;;;;;;;5029540;28;20041;-57
2021/12/11 08:30:50;;;;;;;18.60;7.55;;;;;;;;;;5025708;28;20481;-56
2021/12/11 08:33:16;;;;;;;18.27;7.93;;;;;;;;;;5031125;28;20621;-54
2021/12/11 08:35:43;;;;;;;23.65;7.80;;;;;;;;;;5030736;28;20045;-53
2021/12/11 08:38:10;;;;;;;19.70;7.40;;;;;;;;;;5032447;28;20104;-54
2021/12/11 08:40:38;;;;;;;23.45;8.07;;;;;;;;;;5029748;28;20030;-58
2021/12/11 08:43:05;;;;;;;21.83;7.70;;;;;;;;;;5029190;28;20026;-57
2021/12/11 08:45:46;;;;;;;18.30;7.82;;;;;;;;;;5030900;28;20025;-57
2021/12/11 08:48:18;;;;;;;22.25;7.20;;;;;;;;;;5029695;28;20055;-55
2021/12/11 08:50:46;;;;;;;23.63;9.07;;;;;;;;;;5030819;28;20397;-56
2021/12/11 08:53:12;;;;;;;24.02;8.73;;;;;;;;;;5032622;28;20100;-53
2021/12/11 08:55:41;;;;;;;22.48;8.73;;;;;;;;;;5028071;28;20119;-58
2021/12/11 08:58:08;;;;;;;23.63;7.70;;;;;;;;;;5024847;28;20130;-59
2021/12/11 09:00:38;;;;;;;20.73;8.07;;;;;;;;;;5031196;28;20052;-56
2021/12/11 09:03:08;;;;;;;23.40;8.68;;;;;;;;;;5028321;28;20025;-56
2021/12/11 09:05:37;;;;;;;26.80;8.63;;;;;;;;;;5025073;28;20029;-54
2021/12/11 09:08:05;;;;;;;35.13;9.18;;;;;;;;;;5030392;28;20410;-57
2021/12/11 09:10:35;;;;;;;23.83;9.18;;;;;;;;;;5024489;28;20018;-58
2021/12/11 09:13:10;;;;;;;22.50;8.07;;;;;;;;;;5028237;28;20022;-56
2021/12/11 09:15:40;;;;;;;22.20;7.63;;;;;;;;;;5021068;28;20018;-59
2021/12/11 09:18:08;;;;;;;18.80;7.47;;;;;;;;;;5030003;28;20034;-58
2021/12/11 09:20:38;;;;;;;23.80;7.75;;;;;;;;;;5026529;28;20013;-55
2021/12/11 09:23:07;;;;;;;21.70;7.90;;;;;;;;;;5027743;28;20096;-58
2021/12/11 09:25:36;;;;;;;20.88;8.13;;;;;;;;;;5022297;28;20088;-58
2021/12/11 09:28:08;;;;;;;24.30;9.57;;;;;;;;;;5023594;28;20037;-57
2021/12/11 09:31:10;;;;;;;22.90;8.35;;;;;;;;;;5028494;28;20481;-58
2021/12/11 09:33:45;;;;;;;20.95;8.38;;;;;;;;;;5001193;28;20064;-57
2021/12/11 09:36:20;;;;;;;17.45;6.45;;;;;;;;;;5025188;28;20091;-57
2021/12/11 09:38:55;;;;;;;17.10;6.53;;;;;;;;;;5031487;28;20028;-57
2021/12/11 09:41:21;;;;;;;16.65;6.78;;;;;;;;;;5031120;28;20033;-58
2021/12/11 09:43:58;;;;;;;18.25;7.60;;;;;;;;;;5026587;28;20129;-57
2021/12/11 09:46:27;;;;;;;16.77;7.10;;;;;;;;;;5025774;28;20113;-57
2021/12/11 09:48:53;;;;;;;18.85;7.35;;;;;;;;;;5031002;28;20053;-57
2021/12/11 09:51:24;;;;;;;15.05;6.80;;;;;;;;;;5034096;28;20044;-58
2021/12/11 09:53:52;;;;;;;20.88;7.63;;;;;;;;;;5031779;28;20317;-58
2021/12/11 09:56:25;;;;;;;18.95;7.68;;;;;;;;;;5021765;28;20034;-57
2021/12/11 09:58:51;;;;;;;20.80;8.60;;;;;;;;;;5030109;28;20044;-57
2021/12/11 10:01:20;;;;;;;19.17;7.55;;;;;;;;;;5033190;28;20076;-58
2021/12/11 10:03:49;;;;;;;20.20;8.25;;;;;;;;;;5026724;28;20025;-58
2021/12/11 10:06:37;;;;;;;19.48;7.57;;;;;;;;;;5033377;28;20030;-57
2021/12/11 10:09:17;;;;;;;20.95;9.02;;;;;;;;;;5029427;28;20038;-55
2021/12/11 10:11:43;;;;;;;21.90;7.85;;;;;;;;;;5029846;28;20064;-56
2021/12/11 10:14:11;;;;;;;18.70;7.65;;;;;;;;;;5035391;28;20101;-57
2021/12/11 10:16:42;;;;;;;20.58;8.80;;;;;;;;;;5029830;28;20032;-58
2021/12/11 10:19:09;;;;;;;25.05;10.45;;;;;;;;;;5033151;28;20508;-59
2021/12/11 10:21:39;;;;;;;29.60;9.50;;;;;;;;;;5025259;28;20117;-57
2021/12/11 10:24:07;;;;;;;22.42;8.48;;;;;;;;;;5034605;28;20100;-57
2021/12/11 10:26:33;;;;;;;23.02;8.88;;;;;;;;;;5028357;28;20478;-55
2021/12/11 10:29:03;;;;;;;22.05;9.52;;;;;;;;;;5025484;28;20075;-56
2021/12/11 10:31:43;;;;;;;23.05;9.07;;;;;;;;;;5028231;28;20109;-58
2021/12/11 10:34:12;;;;;;;19.13;8.73;;;;;;;;;;5030909;28;20055;-57
2021/12/11 10:36:40;;;;;;;26.15;10.60;;;;;;;;;;5035376;28;20048;-56
2021/12/11 10:39:09;;;;;;;21.98;9.02;;;;;;;;;;5031067;28;20026;-56
2021/12/11 10:41:35;;;;;;;18.58;8.80;;;;;;;;;;5030383;28;20028;-57
2021/12/11 10:44:06;;;;;;;26.55;8.80;;;;;;;;;;5026813;28;20450;-59
2021/12/11 10:46:35;;;;;;;21.15;8.95;;;;;;;;;;5029912;28;20029;-59
2021/12/11 10:49:03;;;;;;;24.27;8.70;;;;;;;;;;5035000;28;20424;-57
2021/12/11 10:51:33;;;;;;;23.15;8.40;;;;;;;;;;5034368;28;20030;-57
2021/12/11 10:54:00;;;;;;;21.23;9.23;;;;;;;;;;5035156;28;20121;-58
2021/12/11 10:56:26;;;;;;;21.58;9.45;;;;;;;;;;5034986;28;20121;-57
2021/12/11 10:59:05;;;;;;;23.08;9.40;;;;;;;;;;5033508;28;20048;-59
2021/12/11 11:01:36;;;;;;;23.17;9.27;;;;;;;;;;5031668;28;20053;-59
2021/12/11 11:04:05;;;;;;;20.05;8.80;;;;;;;;;;5028126;28;20529;-59
2021/12/11 11:06:31;;;;;;;18.90;8.20;;;;;;;;;;5022710;28;20026;-57
2021/12/11 11:08:57;;;;;;;25.92;9.38;;;;;;;;;;5034117;28;20040;-59
2021/12/11 11:11:25;;;;;;;25.77;9.35;;;;;;;;;;5033372;28;20033;-57
2021/12/11 11:13:51;;;;;;;28.65;10.18;;;;;;;;;;5034881;28;20032;-59
2021/12/11 11:16:20;;;;;;;21.90;9.63;;;;;;;;;;5033530;28;20033;-59
2021/12/11 11:18:47;;;;;;;22.70;8.77;;;;;;;;;;5034159;28;20030;-58
2021/12/11 11:21:15;;;;;;;23.30;8.68;;;;;;;;;;5027111;28;20053;-57
2021/12/11 11:23:41;;;;;;;25.60;9.80;;;;;;;;;;5034478;28;20093;-56
2021/12/11 11:26:09;;;;;;;28.48;9.63;;;;;;;;;;5027727;28;20041;-56
2021/12/11 11:28:39;;;;;;;26.10;9.95;;;;;;;;;;5028424;28;20518;-57
2021/12/11 11:31:16;;;;;;;27.15;10.45;;;;;;;;;;5032884;28;20025;-58
2021/12/11 11:33:43;;;;;;;20.45;7.95;;;;;;;;;;5032460;28;20046;-57
2021/12/11 11:36:11;;;;;;;18.67;7.72;;;;;;;;;;5033581;28;20762;-58
2021/12/11 11:38:41;;;;;;;23.58;8.32;;;;;;;;;;5033039;28;20108;-59
2021/12/11 11:41:11;;;;;;;23.55;8.30;;;;;;;;;;5032827;28;20029;-59
2021/12/11 11:43:38;;;;;;;22.48;9.05;;;;;;;;;;5031717;28;20090;-59
2021/12/11 11:46:05;;;;;;;22.00;8.65;;;;;;;;;;5033287;28;20490;-58
2021/12/11 11:48:32;;;;;;;19.20;8.63;;;;;;;;;;5033115;28;20033;-57
2021/12/11 11:50:59;;;;;;;24.73;9.07;;;;;;;;;;5032649;28;20048;-58
2021/12/11 11:53:25;;;;;;;19.80;8.20;;;;;;;;;;5033653;28;20024;-56
2021/12/11 11:55:57;;;;;;;24.48;9.40;;;;;;;;;;5033133;28;20033;-55
2021/12/11 11:58:24;;;;;;;17.23;7.27;;;;;;;;;;5029829;28;20052;-58
2021/12/11 12:00:53;;;;;;;23.25;8.82;;;;;;;;;;5031481;28;20351;-59
2021/12/11 12:03:20;;;;;;;18.98;7.90;;;;;;;;;;5027349;28;20060;-59
2021/12/11 12:05:48;;;;;;;22.95;9.38;;;;;;;;;;5032637;28;20033;-57
2021/12/11 12:08:15;;;;;;;21.75;8.82;;;;;;;;;;5033056;28;20036;-56
2021/12/11 12:10:44;;;;;;;23.65;9.38;;;;;;;;;;5030381;28;20074;-57
2021/12/11 12:13:10;;;;;;;21.38;8.63;;;;;;;;;;5032421;28;20509;-57
2021/12/11 12:15:42;;;;;;;19.63;9.05;;;;;;;;;;5033278;28;20029;-57
2021/12/11 12:18:08;;;;;;;21.08;8.73;;;;;;;;;;5033165;28;20021;-56
2021/12/11 12:20:35;;;;;;;21.15;8.77;;;;;;;;;;5023235;28;20018;-59
2021/12/11 12:23:01;;;;;;;18.67;8.02;;;;;;;;;;5032461;28;20025;-59
2021/12/11 12:25:28;;;;;;;20.15;8.93;;;;;;;;;;5031882;28;20037;-59
2021/12/11 12:27:54;;;;;;;22.00;9.32;;;;;;;;;;5031900;28;20033;-58
2021/12/11 12:30:26;;;;;;;20.40;8.27;;;;;;;;;;5032391;28;20037;-56
2021/12/11 12:32:55;;;;;;;24.27;9.60;;;;;;;;;;5032291;28;20049;-59
2021/12/11 12:35:24;;;;;;;20.55;8.35;;;;;;;;;;5032927;28;20047;-56
2021/12/11 12:37:50;;;;;;;23.15;9.25;;;;;;;;;;5031772;28;20113;-54
2021/12/11 12:40:27;;;;;;;24.05;10.75;;;;;;;;;;5032724;28;20025;-59
2021/12/11 12:42:55;;;;;;;21.80;9.07;;;;;;;;;;5024816;28;20534;-59
2021/12/11 12:45:28;;;;;;;24.58;9.95;;;;;;;;;;5032964;28;20037;-57
2021/12/11 12:47:56;;;;;;;23.27;9.07;;;;;;;;;;5032708;28;20078;-57
2021/12/11 12:50:25;;;;;;;25.92;10.35;;;;;;;;;;5033157;28;20100;-59
2021/12/11 12:52:52;;;;;;;28.65;10.90;;;;;;;;;;5032907;28;20033;-59
2021/12/11 12:55:22;;;;;;;26.92;10.50;;;;;;;;;;5032885;28;20072;-57
2021/12/11 12:57:49;;;;;;;24.13;9.40;;;;;;;;;;5031057;28;20025;-57
2021/12/11 13:00:22;;;;;;;27.63;10.10;;;;;;;;;;5029808;28;20041;-58
2021/12/11 13:02:49;;;;;;;24.75;9.60;;;;;;;;;;5033180;28;20025;-57
2021/12/11 13:05:17;;;;;;;26.00;10.18;;;;;;;;;;5035283;28;20377;-55
2021/12/11 13:07:44;;;;;;;23.50;10.02;;;;;;;;;;5036804;28;20116;-54
2021/12/11 13:10:17;;;;;;;23.85;9.82;;;;;;;;;;5036860;28;20034;-58
2021/12/11 13:12:44;;;;;;;26.27;10.15;;;;;;;;;;5031043;28;20109;-57
2021/12/11 13:15:13;;;;;;;22.25;9.00;;;;;;;;;;5035900;28;20037;-57
2021/12/11 13:17:44;;;;;;;27.77;9.88;;;;;;;;;;5034219;28;20502;-59
2021/12/11 13:20:16;;;;;;;22.30;10.20;;;;;;;;;;5027098;28;20112;-59
2021/12/11 13:22:44;;;;;;;24.50;10.70;;;;;;;;;;5036080;28;20374;-57
2021/12/11 13:25:14;;;;;;;25.08;10.07;;;;;;;;;;5035037;28;20033;-58
2021/12/11 13:27:41;;;;;;;24.42;10.00;;;;;;;;;;5033514;28;20033;-57
2021/12/11 13:30:12;;;;;;;28.58;10.57;;;;;;;;;;5035227;28;20036;-57
2021/12/11 13:32:39;;;;;;;20.85;9.05;;;;;;;;;;5035791;28;20061;-57
2021/12/11 13:35:08;;;;;;;25.92;9.68;;;;;;;;;;5035172;28;20068;-57
2021/12/11 13:37:34;;;;;;;26.98;10.55;;;;;;;;;;5034282;28;20030;-57
2021/12/11 13:40:01;;;;;;;27.90;11.32;;;;;;;;;;5035711;28;20028;-58
2021/12/11 13:42:28;;;;;;;20.88;9.55;;;;;;;;;;5031509;28;20030;-58
2021/12/11 13:44:56;;;;;;;27.33;11.23;;;;;;;;;;5033469;28;20029;-58
2021/12/11 13:47:25;;;;;;;24.42;10.63;;;;;;;;;;5036360;28;20138;-56
2021/12/11 13:49:51;;;;;;;27.70;10.85;;;;;;;;;;5033317;28;20104;-59
2021/12/11 13:52:19;;;;;;;25.00;10.13;;;;;;;;;;5036413;28;20089;-56
2021/12/11 13:54:45;;;;;;;26.70;10.95;;;;;;;;;;5035034;28;20055;-59
2021/12/11 13:57:14;;;;;;;28.05;10.00;;;;;;;;;;5035080;28;20033;-59
2021/12/11 13:59:40;;;;;;;28.17;11.07;;;;;;;;;;5033650;28;20030;-59
2021/12/11 14:02:06;;;;;;;29.95;10.93;;;;;;;;;;5035090;28;20072;-57
2021/12/11 14:04:34;;;;;;;29.17;11.48;;;;;;;;;;5033984;28;20401;-58
2021/12/11 14:07:13;;;;;;;27.85;10.93;;;;;;;;;;5034923;28;20017;-58
2021/12/11 14:09:42;;;;;;;29.58;10.77;;;;;;;;;;5034244;28;20079;-59
2021/12/11 14:12:09;;;;;;;28.15;11.52;;;;;;;;;;5030620;28;20034;-55
2021/12/11 14:14:35;;;;;;;27.17;10.05;;;;;;;;;;5032470;28;20037;-58
2021/12/11 14:17:01;;;;;;;28.17;11.20;;;;;;;;;;5032360;28;20349;-56
2021/12/11 14:19:27;;;;;;;25.98;10.57;;;;;;;;;;5031825;28;20040;-58
2021/12/11 14:21:58;;;;;;;30.98;10.10;;;;;;;;;;5028957;28;20026;-59
2021/12/11 14:24:24;;;;;;;24.20;10.20;;;;;;;;;;5032026;28;20355;-59
2021/12/11 14:26:50;;;;;;;27.55;11.52;;;;;;;;;;5032176;28;20037;-59
2021/12/11 14:29:16;;;;;;;29.73;10.85;;;;;;;;;;5033660;28;20100;-58
2021/12/11 14:31:43;;;;;;;26.13;9.75;;;;;;;;;;5034363;28;20021;-56
2021/12/11 14:34:09;;;;;;;23.30;10.23;;;;;;;;;;5030977;28;20033;-56
2021/12/11 14:36:36;;;;;;;24.17;10.95;;;;;;;;;;5031567;28;20038;-57
2021/12/11 14:39:05;;;;;;;25.42;10.35;;;;;;;;;;5030946;28;20036;-58
2021/12/11 14:41:33;;;;;;;27.55;11.13;;;;;;;;;;5028313;28;20030;-59
2021/12/11 14:44:00;;;;;;;27.08;11.10;;;;;;;;;;5027772;28;20496;-57
2021/12/11 14:46:30;;;;;;;28.30;11.60;;;;;;;;;;5030192;28;20026;-59